Time;durP1;ratioP1;P1;durP2;ratioP2;P2;SDS_P1;SDS_P2;PMS_P1;PMS_P2;Temp;Humidity;BMP_temperature;BMP_pressure;BME280_temperature;BME280_humidity;BME280_pressure;Samples;Min_cycle;Max_cycle;Signal;HPM_P1;HPM_P2
2022/12/08 00:02:12;;;;;;;80.35;42.45;;;;;;;4.62;100.00;99419.06;5033046;28;20506;-69
2022/12/08 00:09:20;;;;;;;84.97;42.80;;;;;;;4.86;100.00;99415.44;5031808;28;20431;-69
2022/12/08 00:10:08;;;;;;;85.63;42.90;;;;;;;5.13;100.00;99419.47;5033709;28;20491;-69
2022/12/08 00:12:33;;;;;;;75.70;38.38;;;;;;;5.01;100.00;99425.50;5033318;28;20021;-69
2022/12/08 00:14:59;;;;;;;84.60;41.15;;;;;;;5.06;99.44;99428.19;5031749;28;20052;-70
2022/12/08 00:17:24;;;;;;;76.60;40.20;;;;;;;5.08;99.43;99436.22;5032908;28;20017;-69
2022/12/08 00:19:50;;;;;;;78.00;41.25;;;;;;;5.18;100.00;99441.56;5031908;28;20061;-70
2022/12/08 00:22:15;;;;;;;70.60;34.80;;;;;;;5.34;98.46;99433.06;5032278;28;20026;-70
2022/12/08 00:24:43;;;;;;;66.93;33.28;;;;;;;5.32;97.86;99436.13;5032855;28;20037;-70
2022/12/08 00:27:11;;;;;;;67.25;35.92;;;;;;;5.44;97.75;99444.00;5031674;28;20017;-69
2022/12/08 00:29:37;;;;;;;71.50;34.80;;;;;;;5.47;97.89;99440.63;5032872;28;20032;-69
2022/12/08 00:32:02;;;;;;;67.13;36.42;;;;;;;5.53;96.91;99446.06;5032691;28;20017;-69
2022/12/08 00:34:29;;;;;;;62.15;32.90;;;;;;;5.64;96.74;99436.44;5031434;28;20495;-69
2022/12/08 00:36:55;;;;;;;68.20;32.10;;;;;;;5.76;96.07;99445.13;5032859;28;20109;-69
2022/12/08 00:39:20;;;;;;;66.97;35.30;;;;;;;5.78;95.19;99427.34;5032709;28;20021;-70
2022/12/08 00:44:29;;;;;;;61.22;30.70;;;;;;;5.69;95.62;99443.88;5031291;28;20439;-69
2022/12/08 00:46:55;;;;;;;60.20;31.50;;;;;;;5.49;95.57;99440.31;5030967;28;20029;-69
2022/12/08 00:49:21;;;;;;;56.40;30.10;;;;;;;5.55;95.72;99450.19;5031387;28;20018;-69
2022/12/08 00:51:46;;;;;;;55.97;27.30;;;;;;;5.18;97.45;99449.91;5029695;28;20027;-69
2022/12/08 00:54:12;;;;;;;51.85;27.02;;;;;;;5.24;97.76;99447.06;5031682;28;20075;-69
2022/12/08 00:56:38;;;;;;;64.93;27.90;;;;;;;5.41;97.50;99444.56;5032364;28;20029;-69
2022/12/08 00:59:05;;;;;;;45.60;24.23;;;;;;;5.53;96.42;99443.28;5032279;28;20021;-69
2022/12/08 01:01:31;;;;;;;49.78;25.95;;;;;;;5.65;95.88;99453.94;5032209;28;20175;-69
2022/12/08 01:03:57;;;;;;;53.40;27.33;;;;;;;5.45;96.14;99445.63;5031491;28;20100;-69
2022/12/08 01:06:22;;;;;;;53.00;27.90;;;;;;;5.48;96.25;99445.03;5031717;28;20052;-69
2022/12/08 01:08:48;;;;;;;46.85;24.40;;;;;;;5.50;96.24;99452.22;5031913;28;20462;-69
2022/12/08 01:11:16;;;;;;;46.63;24.20;;;;;;;5.20;97.67;99461.53;5032034;28;20017;-69
2022/12/08 01:13:42;;;;;;;45.75;25.13;;;;;;;5.14;98.60;99445.28;5030701;28;20030;-69
2022/12/08 01:16:08;;;;;;;51.83;25.77;;;;;;;5.02;99.71;99451.25;5030746;28;20087;-69
2022/12/08 01:18:35;;;;;;;53.38;26.55;;;;;;;4.74;100.00;99440.78;5030666;28;20075;-69
2022/12/08 01:21:06;;;;;;;48.67;25.42;;;;;;;4.81;100.00;99443.19;5031703;28;20032;-69
2022/12/08 01:23:33;;;;;;;48.97;24.02;;;;;;;4.72;100.00;99450.53;5031558;28;20025;-69
2022/12/08 01:26:07;;;;;;;50.92;25.73;;;;;;;4.52;100.00;99438.59;5031707;28;20037;-69
2022/12/08 01:28:32;;;;;;;55.03;25.02;;;;;;;4.37;100.00;99439.56;5031794;28;20054;-69
2022/12/08 01:30:59;;;;;;;50.67;24.40;;;;;;;4.64;100.00;99438.97;5031331;28;20029;-69
2022/12/08 01:33:26;;;;;;;57.97;26.52;;;;;;;4.47;100.00;99450.53;5030368;28;20025;-69
2022/12/08 01:35:51;;;;;;;49.38;24.10;;;;;;;4.57;100.00;99448.78;5031604;28;20029;-69
2022/12/08 01:38:17;;;;;;;63.22;27.33;;;;;;;4.58;100.00;99445.69;5031569;28;20489;-69
2022/12/08 01:40:43;;;;;;;53.53;27.15;;;;;;;4.49;100.00;99445.53;5031598;28;20560;-70
2022/12/08 01:43:16;;;;;;;58.80;29.05;;;;;;;4.52;100.00;99451.59;5031215;28;20029;-69
2022/12/08 01:45:42;;;;;;;46.58;26.33;;;;;;;4.37;100.00;99436.00;5031390;28;20079;-69
2022/12/08 01:48:13;;;;;;;50.17;24.52;;;;;;;4.44;100.00;99444.75;5030720;28;20485;-69
2022/12/08 01:50:41;;;;;;;49.60;24.77;;;;;;;4.14;100.00;99444.00;5031438;28;20124;-70
2022/12/08 01:53:42;;;;;;;54.58;24.73;;;;;;;4.31;100.00;99443.53;5031715;28;20032;-68
2022/12/08 01:56:29;;;;;;;55.47;26.90;;;;;;;4.27;100.00;99439.69;5029204;28;20079;-69
2022/12/08 01:58:55;;;;;;;55.40;27.33;;;;;;;4.22;100.00;99441.41;5030142;28;20033;-69
2022/12/08 02:01:21;;;;;;;49.47;25.05;;;;;;;4.57;100.00;99437.69;5030915;28;20037;-69
2022/12/08 02:03:52;;;;;;;51.25;26.92;;;;;;;4.56;100.00;99441.59;5030015;28;20459;-69
2022/12/08 02:06:19;;;;;;;57.10;27.38;;;;;;;4.22;100.00;99448.88;5031206;28;20026;-69
2022/12/08 02:08:46;;;;;;;57.03;27.85;;;;;;;4.17;100.00;99443.41;5031205;28;20017;-69
2022/12/08 02:11:12;;;;;;;58.70;27.88;;;;;;;4.10;100.00;99445.66;5031184;28;20485;-69
2022/12/08 02:13:40;;;;;;;62.85;27.77;;;;;;;4.05;100.00;99455.69;5031385;28;20024;-69
2022/12/08 02:16:41;;;;;;;61.92;26.63;;;;;;;4.00;100.00;99449.38;5031140;28;20021;-69
2022/12/08 02:19:19;;;;;;;64.30;28.98;;;;;;;4.11;100.00;99450.94;5017688;28;20037;-69
2022/12/08 02:22:06;;;;;;;57.70;25.88;;;;;;;3.96;100.00;99446.34;5030812;28;20416;-69
2022/12/08 02:24:37;;;;;;;60.80;27.90;;;;;;;3.93;100.00;99449.72;5029858;28;20526;-68
2022/12/08 02:27:31;;;;;;;68.88;30.58;;;;;;;3.83;100.00;99449.81;5031070;28;20030;-69
2022/12/08 02:30:15;;;;;;;62.42;29.00;;;;;;;3.88;100.00;99447.81;5030075;28;20036;-69
2022/12/08 02:33:17;;;;;;;59.63;25.98;;;;;;;3.85;100.00;99455.88;5026481;28;20088;-68
2022/12/08 02:36:04;;;;;;;60.97;28.02;;;;;;;3.98;100.00;99448.84;5011499;28;20072;-69
2022/12/08 02:38:54;;;;;;;64.38;28.75;;;;;;;3.94;100.00;99445.84;5016089;28;20030;-69
2022/12/08 02:41:24;;;;;;;59.97;29.40;;;;;;;3.95;100.00;99446.66;5030819;28;20035;-69
2022/12/08 02:44:00;;;;;;;64.65;29.38;;;;;;;3.97;100.00;99447.19;5029837;28;20021;-69
2022/12/08 02:46:34;;;;;;;60.80;27.23;;;;;;;3.99;100.00;99451.34;5034812;28;20037;-69
2022/12/08 02:49:01;;;;;;;58.38;27.40;;;;;;;4.03;100.00;99441.31;5034778;28;20408;-69
2022/12/08 02:51:26;;;;;;;57.30;29.05;;;;;;;3.93;100.00;99439.50;5033277;28;20037;-69
2022/12/08 02:53:52;;;;;;;54.17;26.10;;;;;;;3.94;100.00;99437.53;5034723;28;20562;-69
2022/12/08 02:56:33;;;;;;;69.80;30.60;;;;;;;4.05;100.00;99438.28;5034385;28;20511;-69
2022/12/08 02:59:16;;;;;;;56.90;27.52;;;;;;;4.10;100.00;99434.59;5033441;28;20056;-69
2022/12/08 03:01:53;;;;;;;58.38;26.95;;;;;;;4.19;100.00;99425.38;5034345;28;20045;-69
2022/12/08 03:04:19;;;;;;;55.80;26.92;;;;;;;4.33;100.00;99442.09;5034504;28;20095;-69
2022/12/08 03:06:48;;;;;;;62.20;30.50;;;;;;;4.40;100.00;99438.97;5034344;28;20635;-69
2022/12/08 03:09:38;;;;;;;60.05;29.42;;;;;;;4.16;100.00;99439.81;5034404;28;20029;-69
2022/12/08 03:12:12;;;;;;;62.38;27.17;;;;;;;4.20;100.00;99442.81;5032968;28;20155;-68
2022/12/08 03:14:42;;;;;;;55.28;26.50;;;;;;;3.99;100.00;99433.88;5033992;28;20057;-69
2022/12/08 03:17:08;;;;;;;49.95;27.27;;;;;;;3.92;100.00;99442.53;5034212;28;20037;-68
2022/12/08 03:19:38;;;;;;;59.60;28.35;;;;;;;3.89;100.00;99454.19;5034220;28;20519;-68
2022/12/08 03:22:05;;;;;;;56.57;26.37;;;;;;;3.84;100.00;99452.28;5034126;28;20025;-69
2022/12/08 03:24:36;;;;;;;61.28;29.17;;;;;;;3.80;100.00;99448.44;5034094;28;20419;-69
2022/12/08 03:27:08;;;;;;;59.97;26.30;;;;;;;3.78;100.00;99445.13;5033183;28;20029;-68
2022/12/08 03:29:34;;;;;;;61.05;26.25;;;;;;;3.85;100.00;99455.88;5033746;28;20400;-69
2022/12/08 03:32:13;;;;;;;60.33;26.85;;;;;;;3.90;100.00;99458.59;5033885;28;20029;-69
2022/12/08 03:34:43;;;;;;;51.15;25.75;;;;;;;3.87;100.00;99454.47;5031459;28;20120;-70
2022/12/08 03:37:08;;;;;;;58.63;27.42;;;;;;;3.83;100.00;99447.88;5033639;28;20057;-68
2022/12/08 03:39:34;;;;;;;59.22;28.75;;;;;;;3.93;100.00;99441.41;5033982;28;20068;-68
2022/12/08 03:41:59;;;;;;;57.55;30.17;;;;;;;4.02;100.00;99456.28;5032653;28;20030;-69
2022/12/08 03:44:25;;;;;;;60.10;30.00;;;;;;;4.14;100.00;99453.09;5032143;28;20030;-68
2022/12/08 03:46:50;;;;;;;61.78;30.48;;;;;;;4.03;100.00;99437.72;5032023;28;20049;-69
2022/12/08 03:49:16;;;;;;;49.67;25.00;;;;;;;3.97;100.00;99442.47;5033659;28;20052;-69
2022/12/08 03:51:41;;;;;;;57.65;26.88;;;;;;;3.94;100.00;99440.28;5033584;28;20025;-68
2022/12/08 03:54:06;;;;;;;49.10;23.60;;;;;;;3.90;100.00;99436.47;5033127;28;20480;-68
2022/12/08 03:56:35;;;;;;;50.47;24.52;;;;;;;3.78;100.00;99437.69;5033469;28;20079;-69
2022/12/08 03:59:01;;;;;;;50.33;24.33;;;;;;;3.99;100.00;99445.81;5033468;28;20029;-68
2022/12/08 04:01:26;;;;;;;49.00;23.55;;;;;;;4.07;100.00;99434.06;5032345;28;20132;-69
2022/12/08 04:03:52;;;;;;;47.85;24.23;;;;;;;3.95;100.00;99444.72;5033281;28;20045;-69
2022/12/08 04:06:18;;;;;;;56.30;25.77;;;;;;;3.92;100.00;99439.75;5032095;28;20033;-69
2022/12/08 04:08:44;;;;;;;50.25;22.63;;;;;;;3.90;100.00;99442.00;5033145;28;20025;-69
2022/12/08 04:11:10;;;;;;;56.25;23.52;;;;;;;3.90;100.00;99442.81;5033320;28;20112;-69
2022/12/08 04:13:38;;;;;;;60.72;27.00;;;;;;;3.98;100.00;99435.00;5032992;28;20033;-69
2022/12/08 04:16:04;;;;;;;54.55;26.40;;;;;;;3.91;100.00;99447.22;5032017;28;20029;-69
2022/12/08 04:18:31;;;;;;;47.70;25.92;;;;;;;3.98;100.00;99455.22;5032919;28;20029;-69
2022/12/08 04:20:56;;;;;;;50.47;25.70;;;;;;;4.10;100.00;99451.22;5032920;28;20559;-69
2022/12/08 04:23:22;;;;;;;70.38;25.70;;;;;;;4.10;100.00;99452.06;5030733;28;20029;-69
2022/12/08 04:25:47;;;;;;;52.75;22.83;;;;;;;4.43;100.00;99443.94;5033026;28;20395;-69
2022/12/08 04:28:13;;;;;;;47.63;22.85;;;;;;;4.63;100.00;99437.34;5032820;28;20060;-69
2022/12/08 04:30:38;;;;;;;47.60;23.27;;;;;;;4.68;100.00;99443.94;5031874;28;20063;-69
2022/12/08 04:33:04;;;;;;;52.75;22.20;;;;;;;4.95;99.82;99442.47;5032732;28;20018;-69
2022/12/08 04:35:30;;;;;;;50.75;24.02;;;;;;;4.85;98.54;99449.81;5031439;28;20035;-69
2022/12/08 04:37:56;;;;;;;44.90;24.50;;;;;;;4.71;98.68;99440.59;5032655;28;20463;-69
2022/12/08 04:40:21;;;;;;;54.63;25.52;;;;;;;4.85;97.98;99448.97;5032742;28;20420;-69
2022/12/08 04:42:47;;;;;;;44.05;21.50;;;;;;;4.96;97.85;99441.38;5032437;28;20436;-69
2022/12/08 04:45:12;;;;;;;52.28;22.10;;;;;;;5.05;97.04;99453.41;5029511;28;20029;-69
2022/12/08 04:47:38;;;;;;;50.92;24.35;;;;;;;5.12;96.58;99448.34;5032427;28;20041;-69
2022/12/08 04:50:05;;;;;;;50.20;26.25;;;;;;;5.01;96.79;99452.38;5032482;28;20127;-69
2022/12/08 04:52:30;;;;;;;52.53;27.10;;;;;;;4.85;97.03;99452.59;5031271;28;20033;-69
2022/12/08 04:54:55;;;;;;;58.83;31.88;;;;;;;4.76;97.49;99462.69;5032322;28;20041;-69
2022/12/08 04:57:21;;;;;;;71.80;39.00;;;;;;;4.82;97.91;99461.47;5032382;28;20026;-69
2022/12/08 04:59:46;;;;;;;73.20;37.95;;;;;;;4.53;98.89;99464.34;5031399;28;20112;-69
2022/12/08 05:02:12;;;;;;;71.70;37.28;;;;;;;4.57;100.00;99476.47;5031692;28;20480;-68
2022/12/08 05:04:38;;;;;;;65.53;34.50;;;;;;;4.50;100.00;99477.66;5031870;28;20451;-69
2022/12/08 05:07:03;;;;;;;72.78;30.92;;;;;;;4.46;100.00;99482.13;5031590;28;20047;-69
2022/12/08 05:09:29;;;;;;;65.65;32.95;;;;;;;4.46;100.00;99478.53;5032153;28;20381;-69
2022/12/08 05:11:55;;;;;;;78.97;36.35;;;;;;;4.38;100.00;99476.41;5031012;28;20510;-69
2022/12/08 05:14:20;;;;;;;66.78;33.88;;;;;;;4.16;100.00;99472.19;5030404;28;20037;-68
2022/12/08 05:16:46;;;;;;;68.57;33.08;;;;;;;4.28;100.00;99486.47;5029761;28;20041;-69
2022/12/08 05:19:12;;;;;;;66.97;34.75;;;;;;;4.28;100.00;99478.16;5030055;28;20044;-69
2022/12/08 05:21:38;;;;;;;57.53;30.30;;;;;;;4.28;100.00;99480.94;5031824;28;20136;-69
2022/12/08 05:24:04;;;;;;;56.47;27.85;;;;;;;4.32;100.00;99481.19;5028735;28;20040;-69
2022/12/08 05:26:30;;;;;;;51.80;28.13;;;;;;;4.30;100.00;99481.47;5031795;28;20108;-69
2022/12/08 05:28:55;;;;;;;58.90;28.20;;;;;;;4.30;100.00;99481.47;5031903;28;20435;-69
2022/12/08 05:31:21;;;;;;;57.97;28.63;;;;;;;4.37;100.00;99492.19;5029656;28;20033;-69
2022/12/08 05:33:48;;;;;;;64.32;32.35;;;;;;;4.37;100.00;99496.94;5031342;28;20099;-70
2022/12/08 05:36:14;;;;;;;67.20;30.67;;;;;;;4.31;100.00;99496.97;5029598;28;20029;-69
2022/12/08 05:38:40;;;;;;;54.42;29.55;;;;;;;4.41;100.00;99501.59;5028824;28;20018;-69
2022/12/08 05:41:06;;;;;;;66.53;32.00;;;;;;;4.61;100.00;99508.00;5031597;28;20489;-69
2022/12/08 05:43:32;;;;;;;68.72;31.63;;;;;;;4.61;100.00;99500.53;5031560;28;20021;-69
2022/12/08 05:45:57;;;;;;;66.10;30.55;;;;;;;4.78;100.00;99515.84;5031443;28;20048;-69
2022/12/08 05:48:22;;;;;;;77.38;31.80;;;;;;;4.68;99.64;99507.66;5031552;28;20028;-68
2022/12/08 05:50:49;;;;;;;61.60;28.95;;;;;;;4.74;99.65;99512.84;5028913;28;20147;-67
2022/12/08 05:53:16;;;;;;;76.15;32.08;;;;;;;4.41;100.00;99522.91;5029825;28;20028;-69
2022/12/08 05:55:41;;;;;;;64.07;31.30;;;;;;;4.33;100.00;99518.84;5031524;28;20025;-71
2022/12/08 05:58:14;;;;;;;73.28;29.67;;;;;;;4.30;100.00;99527.72;5030247;28;20017;-68
2022/12/08 06:00:41;;;;;;;75.40;31.38;;;;;;;4.32;100.00;99528.25;5031209;28;20072;-68
2022/12/08 06:03:06;;;;;;;53.67;27.95;;;;;;;4.34;100.00;99523.25;5027865;28;20021;-69
2022/12/08 06:05:33;;;;;;;58.03;30.90;;;;;;;4.19;100.00;99526.97;5031253;28;20029;-70
2022/12/08 06:07:59;;;;;;;65.05;28.42;;;;;;;4.19;100.00;99521.44;5030071;28;20021;-69
2022/12/08 06:10:24;;;;;;;56.17;28.48;;;;;;;4.06;100.00;99529.31;5030983;28;20108;-69
2022/12/08 06:12:49;;;;;;;53.83;28.88;;;;;;;4.14;100.00;99519.56;5029617;28;20029;-68
2022/12/08 06:15:15;;;;;;;50.80;26.33;;;;;;;4.00;100.00;99518.56;5031277;28;20112;-69
2022/12/08 06:17:40;;;;;;;50.00;26.77;;;;;;;4.05;100.00;99516.59;5031040;28;20086;-68
2022/12/08 06:20:07;;;;;;;56.35;26.42;;;;;;;3.98;100.00;99521.66;5034037;28;20504;-69
2022/12/08 06:22:32;;;;;;;50.95;25.98;;;;;;;3.96;100.00;99517.50;5034826;28;20029;-68
2022/12/08 06:24:58;;;;;;;63.95;28.45;;;;;;;4.03;100.00;99524.38;5032530;28;20377;-66
2022/12/08 06:27:23;;;;;;;65.40;28.88;;;;;;;3.84;100.00;99520.63;5032193;28;20111;-70
2022/12/08 06:29:49;;;;;;;52.55;27.33;;;;;;;3.68;100.00;99518.00;5034787;28;20025;-72
2022/12/08 06:32:14;;;;;;;56.70;28.08;;;;;;;3.71;100.00;99528.47;5035190;28;20115;-71
2022/12/08 06:34:40;;;;;;;59.40;29.05;;;;;;;3.90;100.00;99531.38;5034910;28;20052;-72
2022/12/08 06:37:05;;;;;;;55.00;29.55;;;;;;;3.88;100.00;99522.53;5034254;28;20042;-72
2022/12/08 06:39:30;;;;;;;58.35;28.67;;;;;;;3.86;100.00;99521.16;5031945;28;20026;-71
2022/12/08 06:44:40;;;;;;;58.30;29.92;;;;;;;3.91;100.00;99535.78;5034245;28;20095;-70
2022/12/08 06:47:05;;;;;;;56.50;26.08;;;;;;;4.13;100.00;99542.00;5028541;28;20026;-71
2022/12/08 06:49:31;;;;;;;56.90;27.58;;;;;;;4.11;100.00;99535.94;5014601;28;20145;-73
2022/12/08 06:51:56;;;;;;;62.90;30.15;;;;;;;3.86;100.00;99543.31;5028102;28;20107;-70
2022/12/08 06:54:22;;;;;;;58.47;30.08;;;;;;;3.80;100.00;99548.06;5019185;28;20095;-71
2022/12/08 06:56:47;;;;;;;61.83;30.33;;;;;;;3.85;100.00;99552.72;5034264;28;20028;-70
2022/12/08 06:59:13;;;;;;;55.08;29.92;;;;;;;3.98;100.00;99542.94;5034217;28;20033;-70
2022/12/08 07:01:38;;;;;;;66.50;31.95;;;;;;;4.10;100.00;99556.41;5033792;28;20132;-72
2022/12/08 07:04:04;;;;;;;64.25;34.15;;;;;;;4.00;100.00;99551.78;5033792;28;20069;-68
2022/12/08 07:06:29;;;;;;;65.15;33.63;;;;;;;3.98;100.00;99551.25;5033890;28;20511;-74
2022/12/08 07:08:54;;;;;;;63.67;30.58;;;;;;;4.04;100.00;99563.94;5032539;28;20029;-75
2022/12/08 07:11:20;;;;;;;66.13;35.22;;;;;;;3.92;100.00;99565.16;5031792;28;20029;-76
2022/12/08 07:13:46;;;;;;;66.43;33.78;;;;;;;3.93;100.00;99566.81;5020861;28;20026;-74
2022/12/08 07:16:11;;;;;;;72.03;35.08;;;;;;;3.86;100.00;99565.44;5032866;28;20083;-76
2022/12/08 07:18:38;;;;;;;72.43;36.30;;;;;;;3.74;100.00;99568.59;5031962;28;20109;-79
2022/12/08 07:21:05;;;;;;;72.43;37.63;;;;;;;3.64;100.00;99572.25;5029531;28;20041;-76
2022/12/08 07:23:31;;;;;;;69.25;35.30;;;;;;;3.67;100.00;99576.38;5021973;28;20033;-74
2022/12/08 07:26:03;;;;;;;73.28;38.28;;;;;;;3.81;100.00;99576.56;5029745;28;20026;-73
2022/12/08 07:28:33;;;;;;;68.90;35.95;;;;;;;3.82;100.00;99580.97;5013996;28;20447;-75
2022/12/08 07:30:59;;;;;;;66.57;35.80;;;;;;;3.92;100.00;99595.59;5028463;28;20026;-74
2022/12/08 07:33:25;;;;;;;69.00;32.30;;;;;;;4.11;100.00;99596.84;5033657;28;20048;-73
2022/12/08 07:35:58;;;;;;;64.15;32.33;;;;;;;4.12;100.00;99593.75;5031282;28;20037;-73
2022/12/08 07:38:25;;;;;;;70.30;33.65;;;;;;;4.19;100.00;99594.28;5029571;28;20025;-70
2022/12/08 07:40:51;;;;;;;72.28;33.03;;;;;;;4.36;100.00;99598.56;5033000;28;20412;-74
2022/12/08 07:43:17;;;;;;;75.50;31.50;;;;;;;4.34;100.00;99596.09;5033038;28;20588;-71
2022/12/08 07:45:43;;;;;;;77.95;34.42;;;;;;;4.33;100.00;99594.41;5032906;28;20052;-74
2022/12/08 07:48:08;;;;;;;60.50;31.70;;;;;;;4.33;100.00;99597.19;5032552;28;20408;-74
2022/12/08 07:50:34;;;;;;;65.15;31.70;;;;;;;4.41;100.00;99594.91;5032283;28;20436;-74
2022/12/08 07:52:59;;;;;;;68.32;34.20;;;;;;;4.43;100.00;99595.44;5033265;28;20159;-79
2022/12/08 07:55:25;;;;;;;74.07;33.92;;;;;;;4.34;100.00;99592.50;5033188;28;20456;-71
2022/12/08 07:57:51;;;;;;;71.97;33.65;;;;;;;4.37;100.00;99604.94;5032049;28;20033;-69
2022/12/08 08:00:18;;;;;;;67.10;32.30;;;;;;;4.38;100.00;99606.59;5028037;28;20546;-72
2022/12/08 08:02:44;;;;;;;67.07;32.30;;;;;;;4.47;100.00;99596.53;5029785;28;20120;-70
2022/12/08 08:05:11;;;;;;;67.85;30.27;;;;;;;4.42;100.00;99613.19;5033751;28;20060;-70
2022/12/08 08:07:37;;;;;;;60.25;31.02;;;;;;;4.52;100.00;99607.56;5029267;28;20025;-71
2022/12/08 08:10:05;;;;;;;73.80;37.25;;;;;;;4.63;100.00;99608.28;5035557;28;20117;-73
2022/12/08 08:12:31;;;;;;;75.95;38.25;;;;;;;4.54;100.00;99594.25;5029958;28;20048;-73
2022/12/08 08:14:56;;;;;;;67.60;37.50;;;;;;;4.51;100.00;99594.84;5016224;28;20492;-74
2022/12/08 08:17:22;;;;;;;75.18;40.90;;;;;;;4.49;100.00;99595.13;5032474;28;20072;-73
2022/12/08 08:19:47;;;;;;;84.95;48.05;;;;;;;4.59;100.00;99601.69;5032763;28;20040;-73
2022/12/08 08:22:13;;;;;;;83.53;50.60;;;;;;;4.61;100.00;99600.28;5031427;28;20052;-73
2022/12/08 08:24:38;;;;;;;80.97;39.97;;;;;;;4.74;100.00;99597.94;5037854;28;20030;-72
2022/12/08 08:27:04;;;;;;;86.45;47.15;;;;;;;4.69;100.00;99592.44;5029486;28;20029;-71
2022/12/08 08:29:29;;;;;;;81.32;40.83;;;;;;;4.91;100.00;99605.81;5029208;28;20040;-73
2022/12/08 08:31:55;;;;;;;88.75;43.33;;;;;;;4.94;100.00;99598.81;5017539;28;20128;-73
2022/12/08 08:34:20;;;;;;;87.22;47.45;;;;;;;5.00;100.00;99590.16;5024808;28;20447;-74
2022/12/08 08:36:46;;;;;;;97.97;51.47;;;;;;;5.14;100.00;99595.81;5029172;28;20027;-73
2022/12/08 08:39:12;;;;;;;63.90;32.95;;;;;;;5.28;100.00;99584.00;5030383;28;20033;-73
2022/12/08 08:41:37;;;;;;;65.55;32.88;;;;;;;5.37;99.80;99586.94;5029301;28;20075;-71
2022/12/08 08:44:03;;;;;;;62.63;32.55;;;;;;;5.16;99.85;99585.25;5029930;28;20112;-71
2022/12/08 08:46:29;;;;;;;75.82;37.97;;;;;;;5.28;99.66;99586.78;5029146;28;20025;-71
2022/12/08 08:48:55;;;;;;;64.65;34.67;;;;;;;5.33;99.46;99587.53;5032366;28;20021;-71
2022/12/08 08:51:20;;;;;;;66.10;33.05;;;;;;;5.55;99.43;99571.44;5023399;28;20030;-71
2022/12/08 08:53:45;;;;;;;57.20;29.73;;;;;;;5.82;98.81;99569.97;5022191;28;20206;-72
2022/12/08 08:56:13;;;;;;;53.40;29.48;;;;;;;5.90;96.13;99572.88;5034831;28;20033;-71
2022/12/08 08:58:39;;;;;;;62.00;32.92;;;;;;;5.78;97.01;99568.91;5036612;28;20101;-71
2022/12/08 09:01:04;;;;;;;61.20;27.27;;;;;;;5.83;97.10;99572.44;5030803;28;20051;-72
2022/12/08 09:03:30;;;;;;;63.28;31.15;;;;;;;6.03;96.55;99576.91;5022462;28;20030;-71
2022/12/08 09:05:55;;;;;;;65.95;34.20;;;;;;;6.04;96.42;99580.47;5027111;28;20040;-70
2022/12/08 09:08:22;;;;;;;75.10;32.45;;;;;;;6.09;96.07;99571.25;5018067;28;20025;-73
2022/12/08 09:10:47;;;;;;;83.40;40.00;;;;;;;6.08;95.90;99569.59;5010773;28;20030;-70
2022/12/08 09:13:13;;;;;;;69.82;31.00;;;;;;;6.14;95.70;99568.38;5025904;28;20030;-69
2022/12/08 09:15:38;;;;;;;73.68;39.70;;;;;;;6.20;96.34;99566.34;5029630;28;20480;-69
2022/12/08 09:18:05;;;;;;;67.60;36.92;;;;;;;6.33;94.57;99568.34;5032898;28;20043;-74
2022/12/08 09:20:32;;;;;;;83.93;34.70;;;;;;;6.17;94.43;99565.81;5030636;28;20033;-72
2022/12/08 09:22:57;;;;;;;69.10;31.45;;;;;;;6.15;95.65;99561.69;5021446;28;20026;-74
2022/12/08 09:25:23;;;;;;;60.80;28.95;;;;;;;6.44;94.74;99564.25;5032478;28;20029;-71
2022/12/08 09:27:48;;;;;;;64.13;33.88;;;;;;;6.63;93.58;99562.53;5030409;28;20025;-74
2022/12/08 09:30:14;;;;;;;61.17;29.92;;;;;;;6.41;92.66;99562.09;5027465;28;20033;-72
2022/12/08 09:32:39;;;;;;;60.22;29.60;;;;;;;6.29;93.94;99548.69;5030902;28;20053;-76
2022/12/08 09:35:05;;;;;;;61.50;31.52;;;;;;;6.25;94.25;99539.31;5030353;28;20507;-73
2022/12/08 09:37:30;;;;;;;68.45;33.83;;;;;;;6.49;93.79;99545.84;5024889;28;20037;-75
2022/12/08 09:39:56;;;;;;;68.57;31.23;;;;;;;6.64;93.72;99541.97;5028751;28;20017;-79
2022/12/08 09:42:51;;;;;;;72.72;36.00;;;;;;;6.92;91.67;99544.78;5038712;28;20079;-75
2022/12/08 09:45:18;;;;;;;69.72;31.15;;;;;;;6.95;91.63;99535.81;5023457;28;20057;-73
2022/12/08 09:48:10;;;;;;;81.68;39.65;;;;;;;7.14;90.78;99538.47;5034336;28;20095;-73
2022/12/08 09:50:56;;;;;;;75.05;34.47;;;;;;;7.22;90.48;99534.13;5029905;28;20508;-70
2022/12/08 09:53:26;;;;;;;88.20;43.80;;;;;;;7.34;89.30;99539.19;5026348;28;20104;-78
2022/12/08 09:55:56;;;;;;;89.75;39.63;;;;;;;7.37;88.28;99528.25;5028656;28;20109;-73
2022/12/08 09:58:35;;;;;;;81.50;35.38;;;;;;;7.36;87.51;99534.97;5027345;28;20029;-73
2022/12/08 10:01:00;;;;;;;74.05;30.98;;;;;;;7.43;87.87;99532.56;5029207;28;20534;-74
2022/12/08 10:03:29;;;;;;;74.43;32.42;;;;;;;7.47;86.91;99516.06;5028893;28;20041;-74
2022/12/08 10:06:11;;;;;;;72.18;33.42;;;;;;;7.53;86.99;99517.56;5024853;28;20083;-75
2022/12/08 10:08:49;;;;;;;63.38;30.40;;;;;;;7.49;87.01;99518.53;5027458;28;20420;-73
2022/12/08 10:11:23;;;;;;;63.17;28.83;;;;;;;7.26;87.76;99533.19;5026985;28;20400;-73
2022/12/08 10:13:58;;;;;;;67.85;31.00;;;;;;;7.11;87.79;99527.97;5029120;28;20025;-74
2022/12/08 10:16:33;;;;;;;72.43;32.10;;;;;;;6.72;89.56;99522.63;5028672;28;20120;-74
2022/12/08 10:19:10;;;;;;;63.53;31.58;;;;;;;6.64;90.82;99525.31;5027939;28;20025;-70
2022/12/08 10:21:36;;;;;;;72.68;34.50;;;;;;;6.77;91.43;99515.31;5026900;28;20116;-73
2022/12/08 10:24:10;;;;;;;83.65;38.30;;;;;;;6.64;91.12;99512.22;5020092;28;20123;-74
2022/12/08 10:26:35;;;;;;;82.25;34.50;;;;;;;6.54;92.59;99518.78;5007145;28;20507;-71
2022/12/08 10:29:01;;;;;;;71.45;36.15;;;;;;;6.58;91.71;99521.78;5022134;28;20037;-71
2022/12/08 10:31:30;;;;;;;68.15;35.28;;;;;;;6.71;92.92;99520.13;5026280;28;20037;-72
2022/12/08 10:33:58;;;;;;;90.50;38.08;;;;;;;6.85;92.25;99514.59;5015607;28;20044;-69
2022/12/08 10:36:44;;;;;;;348.75;164.85;;;;;;;6.81;91.44;99508.81;5024747;28;20034;-76
2022/12/08 10:39:33;;;;;;;151.80;79.03;;;;;;;6.98;91.04;99507.38;5028181;28;20484;-74
2022/12/08 10:42:05;;;;;;;74.82;39.25;;;;;;;6.91;90.80;99501.41;5041816;28;20475;-73
2022/12/08 10:44:30;;;;;;;70.90;33.20;;;;;;;6.79;90.65;99497.19;5030149;28;20124;-73
2022/12/08 10:46:56;;;;;;;71.60;35.42;;;;;;;6.52;92.50;99503.56;5032086;28;20540;-72
2022/12/08 10:49:31;;;;;;;79.15;35.67;;;;;;;6.77;92.60;99506.97;5014934;28;20546;-70
2022/12/08 10:51:57;;;;;;;76.68;37.25;;;;;;;6.57;92.86;99490.38;5030046;28;20014;-72
2022/12/08 10:54:35;;;;;;;68.82;36.08;;;;;;;6.71;92.23;99493.19;5024640;28;20033;-70
2022/12/08 10:57:00;;;;;;;73.68;37.17;;;;;;;7.01;91.35;99481.72;5027739;28;20100;-71
2022/12/08 10:59:25;;;;;;;82.35;39.60;;;;;;;7.18;90.53;99480.25;5018930;28;20033;-70
2022/12/08 11:01:53;;;;;;;62.78;32.22;;;;;;;7.08;89.62;99486.88;5027386;28;20052;-70
2022/12/08 11:04:22;;;;;;;78.43;38.08;;;;;;;6.90;90.41;99475.56;5024188;28;20072;-70
2022/12/08 11:06:50;;;;;;;77.00;33.75;;;;;;;6.87;91.96;99476.97;5043505;28;20040;-70
2022/12/08 11:09:18;;;;;;;74.55;34.33;;;;;;;6.94;91.10;99482.16;5051330;28;20146;-71
2022/12/08 11:11:48;;;;;;;72.68;34.67;;;;;;;7.09;90.72;99477.41;5019075;28;20033;-71
2022/12/08 11:14:43;;;;;;;71.63;34.63;;;;;;;6.72;90.91;99480.09;5044955;28;20126;-75
2022/12/08 11:17:22;;;;;;;67.03;34.83;;;;;;;6.83;92.41;99475.16;5018246;28;20045;-70
2022/12/08 11:20:20;;;;;;;69.85;32.55;;;;;;;6.86;91.79;99475.34;5031793;28;20035;-71
2022/12/08 11:22:52;;;;;;;68.20;31.85;;;;;;;6.49;92.39;99459.72;5031969;28;20392;-72
2022/12/08 11:25:26;;;;;;;109.63;41.17;;;;;;;6.62;93.53;99466.38;5019337;28;20045;-70
2022/12/08 11:28:00;;;;;;;90.07;40.33;;;;;;;6.64;93.91;99456.63;5031485;28;20040;-70
2022/12/08 11:30:33;;;;;;;91.00;38.20;;;;;;;6.80;92.93;99462.69;5031771;28;20397;-72
2022/12/08 11:33:24;;;;;;;71.95;34.15;;;;;;;6.60;92.55;99456.41;5029939;28;20021;-73
2022/12/08 11:36:02;;;;;;;65.18;31.33;;;;;;;6.60;92.59;99461.16;5026584;28;20135;-73